Beekman, Louisiana
Current Conditions -  °F | °C
As of 7:15 PM on Tuesday 21 Oct 2014 (Local Time) from KBQP Reporting Station
Clear Clear  
Wind Chill: 61°   Ceiling: Unl
Heat Index: 61°   Visibility: 10mi
Dew Point: 60°   Wind: 0mph
Humidity: 94%   Direction: NA
Pressure: 30.04"   Gusts: NA
Location:  32.8721°N, 91.912°W
Report Text: KBQP 220015Z AUTO 00000KT 10SM CLR 16/15 A3004 RMK AO2 T01630153
Loading
Personal Weather Stations






























Interactive Weather Map
Tropical Storm Tracking
New forecast layout! Learn more

10-Day Weather Forecast

Advertisements
Track Severe Weather on mobile